AVA3438 SKBO-SKPS
Flight info
| Callsign | AVA3438 |
|---|---|
| Flight time | 1h 0m |
| Altitude | 36000 |
| Route | VAPOM4R OREGA DCT MER |
| Aircraft | A20N/M-SDE2E3FGHIRWXY/LB1 |
Departure
| Time | 2026-04-24 02:35 |
|---|---|
| Airport | El Dorado International Airport (SKBO) |
Arrival
| Time | 2026-04-24 03:36 |
|---|---|
| Airport | Antonio Nariño Airport (SKPS) |
| Time | Latitude | Longitude | Altitude | Speed | Heading |
|---|---|---|---|---|---|
| 2026-04-24 02:15 | 4.69853 | -74.13970 | 8365 ft | 0 kts | 217° |
| 2026-04-24 02:21 | 4.69861 | -74.13964 | 8366 ft | 3 kts | 217° |
| 2026-04-24 02:21 | 4.69877 | -74.13952 | 8365 ft | 3 kts | 218° |
| 2026-04-24 02:21 | 4.69893 | -74.13939 | 8365 ft | 3 kts | 218° |
| 2026-04-24 02:21 | 4.69909 | -74.13927 | 8365 ft | 3 kts | 213° |
| 2026-04-24 02:22 | 4.69920 | -74.13920 | 8365 ft | 1 kts | 190° |
| 2026-04-24 02:22 | 4.69928 | -74.13920 | 8366 ft | 1 kts | 156° |
| 2026-04-24 02:22 | 4.69935 | -74.13924 | 8365 ft | 1 kts | 137° |
| 2026-04-24 02:22 | 4.69941 | -74.13929 | 8365 ft | 1 kts | 131° |
| 2026-04-24 02:23 | 4.69943 | -74.13932 | 8365 ft | 0 kts | 130° |
| 2026-04-24 02:27 | 4.69943 | -74.13931 | 8365 ft | 1 kts | 130° |
| 2026-04-24 02:27 | 4.69935 | -74.13923 | 8365 ft | 3 kts | 130° |
| 2026-04-24 02:28 | 4.69925 | -74.13903 | 8365 ft | 4 kts | 98° |
| 2026-04-24 02:28 | 4.69932 | -74.13874 | 8365 ft | 5 kts | 72° |
| 2026-04-24 02:28 | 4.69942 | -74.13833 | 8365 ft | 7 kts | 91° |
| 2026-04-24 02:28 | 4.69922 | -74.13787 | 8365 ft | 8 kts | 124° |
| 2026-04-24 02:29 | 4.69886 | -74.13734 | 8366 ft | 10 kts | 124° |
| 2026-04-24 02:29 | 4.69843 | -74.13672 | 8365 ft | 12 kts | 127° |
| 2026-04-24 02:29 | 4.69789 | -74.13605 | 8365 ft | 13 kts | 129° |
| 2026-04-24 02:29 | 4.69731 | -74.13529 | 8366 ft | 14 kts | 126° |
| 2026-04-24 02:30 | 4.69668 | -74.13445 | 8365 ft | 16 kts | 126° |
| 2026-04-24 02:30 | 4.69602 | -74.13354 | 8365 ft | 17 kts | 126° |
| 2026-04-24 02:30 | 4.69592 | -74.13249 | 8365 ft | 15 kts | 97° |
| 2026-04-24 02:30 | 4.69537 | -74.13159 | 8365 ft | 16 kts | 127° |
| 2026-04-24 02:31 | 4.69467 | -74.13069 | 8365 ft | 17 kts | 128° |
| 2026-04-24 02:31 | 4.69393 | -74.12972 | 8365 ft | 18 kts | 127° |
| 2026-04-24 02:31 | 4.69317 | -74.12868 | 8364 ft | 19 kts | 126° |
| 2026-04-24 02:31 | 4.69235 | -74.12759 | 8365 ft | 20 kts | 128° |
| 2026-04-24 02:32 | 4.69158 | -74.12660 | 8365 ft | 10 kts | 128° |
| 2026-04-24 02:32 | 4.69134 | -74.12620 | 8365 ft | 7 kts | 110° |
| 2026-04-24 02:32 | 4.69137 | -74.12564 | 8365 ft | 9 kts | 70° |
| 2026-04-24 02:32 | 4.69164 | -74.12530 | 8365 ft | 0 kts | 33° |
| 2026-04-24 02:33 | 4.69167 | -74.12528 | 8365 ft | 1 kts | 33° |
| 2026-04-24 02:33 | 4.69182 | -74.12518 | 8364 ft | 4 kts | 33° |
| 2026-04-24 02:33 | 4.69212 | -74.12508 | 8365 ft | 5 kts | 16° |
| 2026-04-24 02:33 | 4.69251 | -74.12493 | 8365 ft | 7 kts | 25° |
| 2026-04-24 02:34 | 4.69288 | -74.12500 | 8365 ft | 3 kts | 307° |
| 2026-04-24 02:34 | 4.69288 | -74.12501 | 8365 ft | 0 kts | 307° |
| 2026-04-24 02:34 | 4.69320 | -74.12540 | 8365 ft | 32 kts | 310° |
| 2026-04-24 02:34 | 4.69601 | -74.12907 | 8362 ft | 99 kts | 307° |
| 2026-04-24 02:35 | 4.70128 | -74.13605 | 8365 ft | 151 kts | 307° |
| 2026-04-24 02:35 | 4.70827 | -74.14510 | 8697 ft | 166 kts | 309° |
| 2026-04-24 02:35 | 4.71562 | -74.15428 | 9286 ft | 173 kts | 307° |
| 2026-04-24 02:35 | 4.72289 | -74.16408 | 9845 ft | 177 kts | 306° |
| 2026-04-24 02:36 | 4.73031 | -74.17427 | 10320 ft | 188 kts | 307° |
| 2026-04-24 02:36 | 4.73848 | -74.18540 | 10597 ft | 209 kts | 307° |
| 2026-04-24 02:36 | 4.74742 | -74.19745 | 10861 ft | 229 kts | 307° |
| 2026-04-24 02:36 | 4.75747 | -74.21087 | 11057 ft | 254 kts | 307° |
| 2026-04-24 02:37 | 4.76860 | -74.22568 | 11302 ft | 278 kts | 307° |
| 2026-04-24 02:37 | 4.78070 | -74.24180 | 11571 ft | 301 kts | 307° |
| 2026-04-24 02:37 | 4.79375 | -74.25918 | 11793 ft | 324 kts | 307° |
| 2026-04-24 02:37 | 4.80775 | -74.27783 | 12028 ft | 345 kts | 307° |
| 2026-04-24 02:38 | 4.82236 | -74.29728 | 12620 ft | 351 kts | 307° |
| 2026-04-24 02:38 | 4.83712 | -74.31693 | 13343 ft | 354 kts | 307° |
| 2026-04-24 02:38 | 4.85205 | -74.33680 | 14057 ft | 359 kts | 306° |
| 2026-04-24 02:38 | 4.86695 | -74.35664 | 14658 ft | 363 kts | 306° |
| 2026-04-24 02:39 | 4.88216 | -74.37690 | 15285 ft | 366 kts | 306° |
| 2026-04-24 02:39 | 4.89734 | -74.39747 | 15870 ft | 369 kts | 302° |
| 2026-04-24 02:39 | 4.90803 | -74.42088 | 16431 ft | 372 kts | 284° |
| 2026-04-24 02:39 | 4.91087 | -74.44670 | 17002 ft | 375 kts | 266° |
| 2026-04-24 02:40 | 4.90548 | -74.47229 | 17560 ft | 379 kts | 249° |
| 2026-04-24 02:40 | 4.89231 | -74.49523 | 18130 ft | 383 kts | 231° |
| 2026-04-24 02:40 | 4.87386 | -74.51457 | 18646 ft | 387 kts | 224° |
| 2026-04-24 02:40 | 4.85418 | -74.53311 | 19130 ft | 390 kts | 223° |
| 2026-04-24 02:41 | 4.84095 | -74.54545 | 19461 ft | 392 kts | 224° |
| 2026-04-24 02:41 | 4.81453 | -74.57047 | 20094 ft | 396 kts | 224° |
| 2026-04-24 02:41 | 4.79460 | -74.58972 | 20581 ft | 399 kts | 225° |
| 2026-04-24 02:41 | 4.77463 | -74.60920 | 21060 ft | 403 kts | 225° |
| 2026-04-24 02:42 | 4.75455 | -74.62888 | 21532 ft | 406 kts | 225° |
| 2026-04-24 02:42 | 4.73428 | -74.64879 | 21990 ft | 409 kts | 225° |
| 2026-04-24 02:42 | 4.72075 | -74.66206 | 22290 ft | 412 kts | 225° |
| 2026-04-24 02:42 | 4.70025 | -74.68218 | 22751 ft | 415 kts | 225° |
| 2026-04-24 02:43 | 4.67953 | -74.70250 | 23195 ft | 418 kts | 225° |
| 2026-04-24 02:43 | 4.65893 | -74.72271 | 23631 ft | 421 kts | 225° |
| 2026-04-24 02:43 | 4.63790 | -74.74333 | 24039 ft | 424 kts | 225° |
| 2026-04-24 02:43 | 4.60987 | -74.77082 | 24564 ft | 427 kts | 225° |
| 2026-04-24 02:44 | 4.58864 | -74.79164 | 24958 ft | 429 kts | 225° |
| 2026-04-24 02:44 | 4.57422 | -74.80578 | 25223 ft | 430 kts | 225° |
| 2026-04-24 02:44 | 4.55272 | -74.82685 | 25601 ft | 433 kts | 224° |
| 2026-04-24 02:44 | 4.53148 | -74.84767 | 25974 ft | 435 kts | 224° |
| 2026-04-24 02:45 | 4.50243 | -74.87617 | 26452 ft | 438 kts | 224° |
| 2026-04-24 02:45 | 4.48798 | -74.89033 | 26682 ft | 439 kts | 224° |
| 2026-04-24 02:45 | 4.46606 | -74.91182 | 27034 ft | 442 kts | 224° |
| 2026-04-24 02:45 | 4.44407 | -74.93338 | 27360 ft | 444 kts | 224° |
| 2026-04-24 02:46 | 4.42195 | -74.95506 | 27697 ft | 446 kts | 224° |
| 2026-04-24 02:46 | 4.39969 | -74.97687 | 28025 ft | 449 kts | 224° |
| 2026-04-24 02:46 | 4.37731 | -74.99880 | 28350 ft | 451 kts | 224° |
| 2026-04-24 02:46 | 4.35482 | -75.02083 | 28671 ft | 453 kts | 224° |
| 2026-04-24 02:47 | 4.33226 | -75.04293 | 28963 ft | 455 kts | 224° |
| 2026-04-24 02:47 | 4.30987 | -75.06487 | 29276 ft | 457 kts | 223° |
| 2026-04-24 02:47 | 4.28706 | -75.08721 | 29581 ft | 459 kts | 223° |
| 2026-04-24 02:47 | 4.26390 | -75.10988 | 29880 ft | 462 kts | 223° |
| 2026-04-24 02:48 | 4.24082 | -75.13248 | 30196 ft | 463 kts | 223° |
| 2026-04-24 02:48 | 4.21772 | -75.15509 | 30445 ft | 466 kts | 223° |
| 2026-04-24 02:48 | 4.19449 | -75.17783 | 30709 ft | 468 kts | 223° |
| 2026-04-24 02:48 | 4.17116 | -75.20067 | 30976 ft | 470 kts | 223° |
| 2026-04-24 02:49 | 4.14803 | -75.22331 | 31246 ft | 472 kts | 223° |
| 2026-04-24 02:49 | 4.12457 | -75.24626 | 31594 ft | 472 kts | 223° |
| 2026-04-24 02:49 | 4.10114 | -75.26920 | 31965 ft | 471 kts | 223° |
| 2026-04-24 02:49 | 4.07770 | -75.29214 | 32322 ft | 470 kts | 223° |
| 2026-04-24 02:50 | 4.05430 | -75.31503 | 32653 ft | 470 kts | 223° |
| 2026-04-24 02:50 | 4.03095 | -75.33787 | 33004 ft | 470 kts | 223° |
| 2026-04-24 02:50 | 4.00756 | -75.36075 | 33342 ft | 469 kts | 223° |
| 2026-04-24 02:50 | 3.98421 | -75.38359 | 33670 ft | 469 kts | 223° |
| 2026-04-24 02:51 | 3.96093 | -75.40636 | 34004 ft | 468 kts | 223° |
| 2026-04-24 02:51 | 3.93765 | -75.42913 | 34312 ft | 467 kts | 223° |
| 2026-04-24 02:51 | 3.91473 | -75.45154 | 34578 ft | 467 kts | 223° |
| 2026-04-24 02:51 | 3.89149 | -75.47427 | 34826 ft | 467 kts | 223° |
| 2026-04-24 02:52 | 3.86809 | -75.49668 | 35088 ft | 465 kts | 220° |
| 2026-04-24 02:52 | 3.84300 | -75.51716 | 35330 ft | 464 kts | 217° |
| 2026-04-24 02:52 | 3.81771 | -75.53722 | 35589 ft | 464 kts | 217° |
| 2026-04-24 02:52 | 3.79251 | -75.55730 | 35841 ft | 464 kts | 217° |
| 2026-04-24 02:53 | 3.76728 | -75.57743 | 36083 ft | 463 kts | 217° |
| 2026-04-24 02:53 | 3.74204 | -75.59757 | 36175 ft | 463 kts | 217° |
| 2026-04-24 02:53 | 3.69178 | -75.63767 | 36178 ft | 462 kts | 217° |
| 2026-04-24 02:54 | 3.64156 | -75.67770 | 36172 ft | 462 kts | 217° |
| 2026-04-24 02:54 | 3.59159 | -75.71753 | 36176 ft | 463 kts | 217° |
| 2026-04-24 02:55 | 3.54055 | -75.75821 | 36187 ft | 463 kts | 217° |
| 2026-04-24 02:55 | 3.49013 | -75.79839 | 36171 ft | 462 kts | 217° |
| 2026-04-24 02:56 | 3.44021 | -75.83817 | 36166 ft | 462 kts | 217° |
| 2026-04-24 02:56 | 3.38997 | -75.87821 | 36165 ft | 461 kts | 217° |
| 2026-04-24 02:57 | 3.33979 | -75.91818 | 36161 ft | 461 kts | 217° |
| 2026-04-24 02:57 | 3.28932 | -75.95838 | 36177 ft | 465 kts | 217° |
| 2026-04-24 02:58 | 3.23878 | -75.99862 | 36173 ft | 464 kts | 217° |
| 2026-04-24 02:58 | 3.18862 | -76.03855 | 36167 ft | 464 kts | 217° |
| 2026-04-24 02:59 | 3.13812 | -76.07875 | 36156 ft | 464 kts | 217° |
| 2026-04-24 02:59 | 3.08765 | -76.11894 | 36161 ft | 464 kts | 217° |
| 2026-04-24 03:00 | 3.03710 | -76.15917 | 36145 ft | 464 kts | 217° |
| 2026-04-24 03:00 | 2.98686 | -76.19916 | 36140 ft | 465 kts | 217° |
| 2026-04-24 03:01 | 2.93622 | -76.23945 | 36133 ft | 465 kts | 217° |
| 2026-04-24 03:01 | 2.88557 | -76.27975 | 36125 ft | 465 kts | 217° |
| 2026-04-24 03:02 | 2.83496 | -76.32001 | 36114 ft | 465 kts | 217° |
| 2026-04-24 03:02 | 2.78437 | -76.36025 | 36114 ft | 465 kts | 217° |
| 2026-04-24 03:03 | 2.73409 | -76.40025 | 36123 ft | 465 kts | 217° |
| 2026-04-24 03:03 | 2.68341 | -76.44055 | 36148 ft | 465 kts | 217° |
| 2026-04-24 03:04 | 2.63274 | -76.48085 | 36168 ft | 466 kts | 217° |
| 2026-04-24 03:04 | 2.58205 | -76.52115 | 36191 ft | 465 kts | 217° |
| 2026-04-24 03:05 | 2.53138 | -76.56143 | 36212 ft | 465 kts | 217° |
| 2026-04-24 03:05 | 2.48073 | -76.60170 | 36217 ft | 465 kts | 217° |
| 2026-04-24 03:06 | 2.43012 | -76.64193 | 36156 ft | 465 kts | 217° |
| 2026-04-24 03:06 | 2.40474 | -76.66210 | 35857 ft | 466 kts | 217° |
| 2026-04-24 03:06 | 2.37992 | -76.68182 | 35225 ft | 469 kts | 217° |
| 2026-04-24 03:07 | 2.35417 | -76.70226 | 34352 ft | 475 kts | 217° |
| 2026-04-24 03:07 | 2.32804 | -76.72301 | 33240 ft | 483 kts | 217° |
| 2026-04-24 03:07 | 2.30163 | -76.74401 | 32224 ft | 487 kts | 217° |
| 2026-04-24 03:07 | 2.27502 | -76.76517 | 31261 ft | 490 kts | 216° |
| 2026-04-24 03:08 | 2.24830 | -76.78642 | 30343 ft | 492 kts | 216° |
| 2026-04-24 03:08 | 2.19464 | -76.82903 | 28558 ft | 489 kts | 216° |
| 2026-04-24 03:08 | 2.16823 | -76.85002 | 27900 ft | 483 kts | 217° |
| 2026-04-24 03:09 | 2.14209 | -76.87078 | 27252 ft | 477 kts | 217° |
| 2026-04-24 03:09 | 2.11658 | -76.89105 | 26621 ft | 472 kts | 217° |
| 2026-04-24 03:09 | 2.09098 | -76.91138 | 26001 ft | 467 kts | 217° |
| 2026-04-24 03:09 | 2.06565 | -76.93149 | 25374 ft | 463 kts | 217° |
| 2026-04-24 03:10 | 2.04059 | -76.95138 | 24773 ft | 458 kts | 218° |
| 2026-04-24 03:10 | 2.01577 | -76.97108 | 24162 ft | 454 kts | 218° |
| 2026-04-24 03:10 | 1.99111 | -76.99065 | 23567 ft | 450 kts | 218° |
| 2026-04-24 03:10 | 1.96675 | -77.00998 | 22931 ft | 445 kts | 218° |
| 2026-04-24 03:11 | 1.94264 | -77.02912 | 22306 ft | 439 kts | 218° |
| 2026-04-24 03:11 | 1.91920 | -77.04774 | 21683 ft | 434 kts | 219° |
| 2026-04-24 03:11 | 1.89567 | -77.06643 | 21078 ft | 430 kts | 219° |
| 2026-04-24 03:11 | 1.87242 | -77.08490 | 20496 ft | 425 kts | 219° |
| 2026-04-24 03:12 | 1.84940 | -77.10318 | 19905 ft | 421 kts | 219° |
| 2026-04-24 03:12 | 1.82661 | -77.12129 | 19318 ft | 417 kts | 219° |
| 2026-04-24 03:12 | 1.80404 | -77.13921 | 18751 ft | 412 kts | 218° |
| 2026-04-24 03:12 | 1.78061 | -77.15553 | 18137 ft | 409 kts | 211° |
| 2026-04-24 03:13 | 1.75575 | -77.16905 | 17509 ft | 405 kts | 208° |
| 2026-04-24 03:13 | 1.73104 | -77.18219 | 16895 ft | 401 kts | 208° |
| 2026-04-24 03:13 | 1.70656 | -77.19529 | 16311 ft | 397 kts | 209° |
| 2026-04-24 03:13 | 1.68237 | -77.20825 | 15729 ft | 393 kts | 209° |
| 2026-04-24 03:14 | 1.65841 | -77.22108 | 15171 ft | 389 kts | 209° |
| 2026-04-24 03:14 | 1.63466 | -77.23380 | 14615 ft | 385 kts | 209° |
| 2026-04-24 03:14 | 1.61116 | -77.24639 | 14073 ft | 382 kts | 209° |
| 2026-04-24 03:14 | 1.58811 | -77.25873 | 13486 ft | 379 kts | 209° |
| 2026-04-24 03:15 | 1.56495 | -77.27114 | 12878 ft | 376 kts | 209° |
| 2026-04-24 03:15 | 1.54199 | -77.28344 | 12341 ft | 373 kts | 209° |
| 2026-04-24 03:15 | 1.51919 | -77.29559 | 11770 ft | 370 kts | 208° |
| 2026-04-24 03:15 | 1.49635 | -77.30722 | 11172 ft | 365 kts | 207° |
| 2026-04-24 03:16 | 1.47368 | -77.31846 | 10347 ft | 363 kts | 207° |
| 2026-04-24 03:16 | 1.45122 | -77.32957 | 9516 ft | 358 kts | 207° |
| 2026-04-24 03:16 | 1.42938 | -77.34043 | 9103 ft | 342 kts | 207° |
| 2026-04-24 03:16 | 1.40874 | -77.35073 | 8929 ft | 320 kts | 207° |
| 2026-04-24 03:17 | 1.38956 | -77.36031 | 8872 ft | 296 kts | 206° |
| 2026-04-24 03:17 | 1.37091 | -77.36533 | 8874 ft | 270 kts | 180° |
| 2026-04-24 03:17 | 1.35390 | -77.36168 | 8870 ft | 240 kts | 150° |
| 2026-04-24 03:17 | 1.34143 | -77.35017 | 8880 ft | 250 kts | 120° |
| 2026-04-24 03:18 | 1.33634 | -77.33404 | 8876 ft | 245 kts | 90° |
| 2026-04-24 03:18 | 1.33995 | -77.31805 | 8871 ft | 225 kts | 59° |
| 2026-04-24 03:18 | 1.34913 | -77.30692 | 8898 ft | 193 kts | 38° |
| 2026-04-24 03:18 | 1.36004 | -77.30082 | 8870 ft | 167 kts | 17° |
| 2026-04-24 03:19 | 1.37096 | -77.29810 | 8890 ft | 164 kts | 12° |
| 2026-04-24 03:19 | 1.38207 | -77.29523 | 8880 ft | 164 kts | 14° |
| 2026-04-24 03:19 | 1.39287 | -77.29226 | 8876 ft | 163 kts | 14° |
| 2026-04-24 03:19 | 1.40487 | -77.28885 | 8708 ft | 210 kts | 17° |
| 2026-04-24 03:20 | 1.41942 | -77.28259 | 9051 ft | 236 kts | 31° |
| 2026-04-24 03:20 | 1.43170 | -77.27214 | 9992 ft | 230 kts | 53° |
| 2026-04-24 03:20 | 1.44374 | -77.26187 | 10524 ft | 238 kts | 20° |
| 2026-04-24 03:20 | 1.46023 | -77.25988 | 10228 ft | 242 kts | 348° |
| 2026-04-24 03:21 | 1.47554 | -77.26642 | 9849 ft | 241 kts | 323° |
| 2026-04-24 03:21 | 1.48961 | -77.27570 | 9477 ft | 244 kts | 330° |
| 2026-04-24 03:21 | 1.50492 | -77.28287 | 9241 ft | 240 kts | 338° |
| 2026-04-24 03:21 | 1.52066 | -77.28809 | 9513 ft | 237 kts | 343° |
| 2026-04-24 03:22 | 1.53682 | -77.29246 | 9831 ft | 252 kts | 345° |
| 2026-04-24 03:22 | 1.55397 | -77.29665 | 10001 ft | 253 kts | 345° |
| 2026-04-24 03:22 | 1.57102 | -77.30065 | 9986 ft | 251 kts | 346° |
| 2026-04-24 03:22 | 1.58806 | -77.30463 | 9978 ft | 251 kts | 346° |
| 2026-04-24 03:23 | 1.60510 | -77.30865 | 9968 ft | 252 kts | 345° |
| 2026-04-24 03:23 | 1.62215 | -77.31269 | 9956 ft | 252 kts | 345° |
| 2026-04-24 03:23 | 1.63920 | -77.31674 | 9948 ft | 252 kts | 345° |
| 2026-04-24 03:23 | 1.65602 | -77.32076 | 9939 ft | 252 kts | 345° |
| 2026-04-24 03:24 | 1.67303 | -77.32483 | 9926 ft | 251 kts | 345° |
| 2026-04-24 03:24 | 1.69007 | -77.32891 | 9918 ft | 252 kts | 345° |
| 2026-04-24 03:24 | 1.70716 | -77.33250 | 9895 ft | 252 kts | 356° |
| 2026-04-24 03:24 | 1.72419 | -77.32945 | 9891 ft | 248 kts | 26° |
| 2026-04-24 03:25 | 1.73682 | -77.31885 | 9878 ft | 231 kts | 57° |
| 2026-04-24 03:25 | 1.74254 | -77.30469 | 9879 ft | 213 kts | 75° |
| 2026-04-24 03:25 | 1.74662 | -77.29011 | 9875 ft | 221 kts | 73° |
| 2026-04-24 03:25 | 1.75097 | -77.27545 | 9879 ft | 219 kts | 73° |
| 2026-04-24 03:26 | 1.75541 | -77.26085 | 9799 ft | 220 kts | 73° |
| 2026-04-24 03:26 | 1.75981 | -77.24648 | 9645 ft | 218 kts | 73° |
| 2026-04-24 03:26 | 1.76422 | -77.23207 | 9492 ft | 217 kts | 73° |
| 2026-04-24 03:26 | 1.76864 | -77.21764 | 9339 ft | 217 kts | 73° |
| 2026-04-24 03:27 | 1.77296 | -77.20323 | 9189 ft | 216 kts | 77° |
| 2026-04-24 03:27 | 1.77182 | -77.18867 | 9032 ft | 213 kts | 120° |
| 2026-04-24 03:27 | 1.76148 | -77.17909 | 8887 ft | 199 kts | 166° |
| 2026-04-24 03:27 | 1.74876 | -77.17987 | 8666 ft | 187 kts | 214° |
| 2026-04-24 03:28 | 1.73848 | -77.18747 | 8853 ft | 185 kts | 215° |
| 2026-04-24 03:28 | 1.72765 | -77.19439 | 8889 ft | 186 kts | 213° |
| 2026-04-24 03:28 | 1.71689 | -77.20103 | 8899 ft | 176 kts | 213° |
| 2026-04-24 03:28 | 1.70631 | -77.20690 | 8907 ft | 174 kts | 206° |
| 2026-04-24 03:29 | 1.69499 | -77.21127 | 8915 ft | 174 kts | 199° |
| 2026-04-24 03:29 | 1.68334 | -77.21460 | 8925 ft | 174 kts | 196° |
| 2026-04-24 03:29 | 1.67160 | -77.21768 | 8931 ft | 174 kts | 196° |
| 2026-04-24 03:29 | 1.65987 | -77.22080 | 8939 ft | 175 kts | 196° |
| 2026-04-24 03:30 | 1.64817 | -77.22392 | 8948 ft | 175 kts | 196° |
| 2026-04-24 03:30 | 1.63658 | -77.22701 | 8952 ft | 174 kts | 196° |
| 2026-04-24 03:30 | 1.62486 | -77.23013 | 8961 ft | 175 kts | 196° |
| 2026-04-24 03:30 | 1.61314 | -77.23326 | 8961 ft | 174 kts | 196° |
| 2026-04-24 03:31 | 1.60143 | -77.23638 | 8972 ft | 174 kts | 196° |
| 2026-04-24 03:31 | 1.58969 | -77.23951 | 8975 ft | 175 kts | 196° |
| 2026-04-24 03:31 | 1.57795 | -77.24264 | 8982 ft | 175 kts | 196° |
| 2026-04-24 03:31 | 1.56620 | -77.24577 | 8963 ft | 175 kts | 196° |
| 2026-04-24 03:32 | 1.55444 | -77.24891 | 8779 ft | 175 kts | 195° |
| 2026-04-24 03:32 | 1.54275 | -77.25203 | 8560 ft | 173 kts | 195° |
| 2026-04-24 03:32 | 1.53126 | -77.25509 | 8344 ft | 173 kts | 195° |
| 2026-04-24 03:32 | 1.51967 | -77.25818 | 8129 ft | 172 kts | 195° |
| 2026-04-24 03:33 | 1.50829 | -77.26121 | 7914 ft | 164 kts | 195° |
| 2026-04-24 03:33 | 1.49772 | -77.26403 | 7713 ft | 150 kts | 195° |
| 2026-04-24 03:33 | 1.48791 | -77.26665 | 7545 ft | 145 kts | 195° |
| 2026-04-24 03:33 | 1.47804 | -77.26928 | 7385 ft | 147 kts | 195° |
| 2026-04-24 03:34 | 1.46819 | -77.27191 | 7208 ft | 146 kts | 195° |
| 2026-04-24 03:34 | 1.45838 | -77.27452 | 7021 ft | 146 kts | 195° |
| 2026-04-24 03:34 | 1.44861 | -77.27713 | 6790 ft | 145 kts | 195° |
| 2026-04-24 03:34 | 1.43889 | -77.27972 | 6599 ft | 144 kts | 195° |
| 2026-04-24 03:35 | 1.42936 | -77.28226 | 6390 ft | 144 kts | 195° |
| 2026-04-24 03:35 | 1.41973 | -77.28483 | 6187 ft | 143 kts | 195° |
| 2026-04-24 03:35 | 1.41015 | -77.28738 | 5984 ft | 142 kts | 195° |
| 2026-04-24 03:35 | 1.40124 | -77.28973 | 5880 ft | 132 kts | 192° |
| 2026-04-24 03:36 | 1.39536 | -77.29127 | 5912 ft | 62 kts | 194° |
| 2026-04-24 03:36 | 1.39351 | -77.29177 | 5922 ft | 18 kts | 195° |
| 2026-04-24 03:36 | 1.39243 | -77.29208 | 5928 ft | 15 kts | 204° |
| 2026-04-24 03:36 | 1.39220 | -77.29222 | 5928 ft | 0 kts | 212° |
| 2026-04-24 03:37 | 1.39218 | -77.29221 | 5929 ft | 1 kts | 183° |
| 2026-04-24 03:37 | 1.39218 | -77.29213 | 5929 ft | 1 kts | 90° |
| 2026-04-24 03:38 | 1.39255 | -77.29207 | 5928 ft | 14 kts | 11° |
| 2026-04-24 03:38 | 1.39370 | -77.29172 | 5920 ft | 17 kts | 12° |
| 2026-04-24 03:38 | 1.39496 | -77.29138 | 5914 ft | 13 kts | 17° |
| 2026-04-24 03:38 | 1.39519 | -77.29096 | 5911 ft | 0 kts | 113° |
| 2026-04-24 03:39 | 1.39513 | -77.29072 | 5910 ft | 7 kts | 95° |
| 2026-04-24 03:40 | 1.39564 | -77.29036 | 5908 ft | 11 kts | 20° |
| 2026-04-24 03:40 | 1.39611 | -77.29016 | 5907 ft | 0 kts | 53° |
| 2026-04-24 03:40 | 1.39611 | -77.29015 | 5907 ft | 1 kts | 59° |
| 2026-04-24 03:41 | 1.39613 | -77.28987 | 5907 ft | 6 kts | 101° |
| 2026-04-24 03:41 | 1.39610 | -77.28977 | 5907 ft | 3 kts | 104° |
| 2026-04-24 03:41 | 1.39609 | -77.28974 | 5907 ft | 0 kts | 104° |